createdAt,value
2022-10-04T00:02:13.836Z,13.08
2022-10-04T00:05:04.238Z,13.05
2022-10-04T00:07:53.596Z,13.06
2022-10-04T00:10:39.592Z,13.07
2022-10-04T00:13:26.484Z,13.06
2022-10-04T00:16:21.164Z,13.10
2022-10-04T00:19:42.809Z,13.01
2022-10-04T00:22:30.441Z,13.07
2022-10-04T00:25:17.972Z,13.04
2022-10-04T00:28:25.878Z,12.94
2022-10-04T00:31:27.420Z,12.99
2022-10-04T00:34:13.446Z,13.00
2022-10-04T00:36:59.370Z,12.93
2022-10-04T00:39:47.720Z,12.97
2022-10-04T00:42:53.548Z,12.85
2022-10-04T00:45:46.447Z,12.87
2022-10-04T00:49:07.780Z,12.84
2022-10-04T00:51:58.310Z,12.85
2022-10-04T00:54:50.306Z,12.82
2022-10-04T00:57:43.445Z,12.84
2022-10-04T01:00:33.646Z,12.86
2022-10-04T01:03:26.686Z,12.87
2022-10-04T01:06:12.351Z,12.73
2022-10-04T01:09:04.810Z,12.82
2022-10-04T01:11:59.909Z,12.81
2022-10-04T01:14:59.075Z,12.84
2022-10-04T01:18:10.997Z,12.80
2022-10-04T01:21:09.100Z,12.85
2022-10-04T01:23:58.175Z,12.91
2022-10-04T01:26:45.166Z,12.92
2022-10-04T01:29:32.141Z,12.91
2022-10-04T01:32:18.306Z,12.93
2022-10-04T01:35:04.529Z,12.94
2022-10-04T01:37:50.634Z,12.95
2022-10-04T01:40:43.950Z,12.99
2022-10-04T01:43:33.566Z,12.93
2022-10-04T01:46:33.087Z,12.98
2022-10-04T01:49:21.049Z,12.93
2022-10-04T01:52:22.484Z,12.95
2022-10-04T01:55:19.364Z,12.97
2022-10-04T01:58:27.813Z,12.90
2022-10-04T02:01:19.765Z,12.99
2022-10-04T02:04:22.016Z,12.95
2022-10-04T02:07:12.289Z,12.87
2022-10-04T02:10:02.240Z,12.93
2022-10-04T02:12:50.120Z,12.91
2022-10-04T02:15:37.547Z,12.87
2022-10-04T02:18:24.292Z,12.62
2022-10-04T02:21:11.248Z,12.85
2022-10-04T02:23:57.319Z,12.86
2022-10-04T02:26:49.786Z,12.85
2022-10-04T02:29:36.018Z,12.68
2022-10-04T02:32:41.079Z,12.82
2022-10-04T02:35:35.982Z,12.76
2022-10-04T02:38:24.344Z,12.78
2022-10-04T02:41:38.333Z,12.68
2022-10-04T02:44:32.132Z,12.69
2022-10-04T02:47:21.294Z,12.62
2022-10-04T02:50:21.243Z,12.57
2022-10-04T02:53:19.355Z,12.60
2022-10-04T02:56:05.577Z,12.54
2022-10-04T02:58:52.338Z,12.53
2022-10-04T03:01:41.647Z,12.56
2022-10-04T03:04:33.568Z,12.52
2022-10-04T03:07:20.588Z,12.49
2022-10-04T03:10:12.115Z,12.49
2022-10-04T03:12:57.975Z,12.44
2022-10-04T03:15:44.201Z,12.39
2022-10-04T03:18:31.337Z,12.30
2022-10-04T03:21:19.420Z,12.37
2022-10-04T03:24:06.355Z,12.35
2022-10-04T03:26:54.849Z,12.26
2022-10-04T03:29:43.303Z,12.23
2022-10-04T03:32:30.853Z,12.24
2022-10-04T03:35:36.434Z,12.18
2022-10-04T03:38:24.059Z,12.21
2022-10-04T03:41:10.917Z,12.15
2022-10-04T03:44:00.345Z,12.12
2022-10-04T03:46:48.742Z,12.12
2022-10-04T03:49:37.293Z,12.09
2022-10-04T03:52:26.356Z,12.02
2022-10-04T03:55:14.352Z,12.05
2022-10-04T03:58:00.667Z,12.07
2022-10-04T04:01:02.934Z,12.01
2022-10-04T04:04:25.530Z,11.96
2022-10-04T04:07:22.828Z,11.94
2022-10-04T04:10:48.287Z,11.88
2022-10-04T04:14:12.305Z,11.89
2022-10-04T04:17:27.034Z,11.86
2022-10-04T04:20:39.705Z,11.76
2022-10-04T04:23:34.703Z,11.83
2022-10-04T04:26:44.782Z,11.84
2022-10-04T04:29:43.881Z,11.85
2022-10-04T04:32:42.241Z,11.78
2022-10-04T04:35:33.301Z,11.79
2022-10-04T04:38:26.289Z,11.76
2022-10-04T04:41:12.439Z,11.70
2022-10-04T04:43:58.734Z,11.78
2022-10-04T04:46:46.641Z,11.80
2022-10-04T04:49:33.871Z,11.76
2022-10-04T04:52:22.862Z,11.69
2022-10-04T04:55:17.464Z,11.73
2022-10-04T04:58:04.482Z,11.62
2022-10-04T05:01:01.754Z,11.72
2022-10-04T05:04:05.969Z,11.64
2022-10-04T05:07:01.233Z,11.62
2022-10-04T05:09:47.461Z,11.66
2022-10-04T05:12:33.266Z,11.66
2022-10-04T05:15:19.642Z,11.68
2022-10-04T05:18:35.080Z,11.65
2022-10-04T05:21:27.566Z,11.63
2022-10-04T05:24:26.841Z,11.64
2022-10-04T05:27:27.933Z,11.75
2022-10-04T05:30:28.867Z,11.79
2022-10-04T05:42:03.141Z,10.81
2022-10-04T05:44:51.780Z,11.08
2022-10-04T05:47:41.065Z,11.20
2022-10-04T05:50:41.986Z,11.38
2022-10-04T05:53:36.018Z,11.58
2022-10-04T05:56:31.546Z,11.73
2022-10-04T05:59:49.757Z,11.84
2022-10-04T06:02:54.976Z,11.98
2022-10-04T06:05:54.209Z,12.07
2022-10-04T06:08:46.148Z,12.22
2022-10-04T06:11:47.358Z,12.32
2022-10-04T06:15:03.688Z,12.41
2022-10-04T06:18:11.102Z,12.60
2022-10-04T06:21:09.323Z,12.42
2022-10-04T06:24:11.014Z,12.53
2022-10-04T06:27:16.017Z,12.65
2022-10-04T06:30:05.286Z,12.67
2022-10-04T06:33:03.493Z,12.68
2022-10-04T06:36:24.837Z,12.64
2022-10-04T06:39:16.865Z,12.74
2022-10-04T06:42:17.981Z,12.82
2022-10-04T06:45:21.361Z,12.92
2022-10-04T06:48:45.916Z,13.05
2022-10-04T06:51:33.117Z,13.25
2022-10-04T06:54:41.054Z,13.26
2022-10-04T06:57:39.065Z,13.39
2022-10-04T07:00:29.796Z,13.44
2022-10-04T07:03:40.531Z,13.48
2022-10-04T07:06:31.063Z,13.73
2022-10-04T07:09:22.135Z,13.84
2022-10-04T07:12:08.615Z,13.62
2022-10-04T07:15:00.161Z,13.92
2022-10-04T07:17:48.293Z,13.83
2022-10-04T07:20:34.986Z,14.13
2022-10-04T07:23:29.749Z,14.13
2022-10-04T07:26:38.421Z,14.16
2022-10-04T07:29:31.893Z,14.42
2022-10-04T07:32:23.319Z,14.50
2022-10-04T07:35:09.503Z,14.53
2022-10-04T07:38:06.349Z,14.67
2022-10-04T07:40:58.631Z,14.64
2022-10-04T07:43:52.101Z,14.78
2022-10-04T07:46:50.114Z,14.83
2022-10-04T07:49:40.492Z,14.82
2022-10-04T07:52:41.726Z,14.86
2022-10-04T07:55:33.212Z,14.93
2022-10-04T07:58:35.046Z,14.92
2022-10-04T08:01:47.121Z,14.95
2022-10-04T08:04:45.430Z,15.03
2022-10-04T08:07:37.262Z,15.25
2022-10-04T08:10:31.352Z,15.25
2022-10-04T08:13:28.724Z,15.39
2022-10-04T08:16:36.529Z,15.37
2022-10-04T08:19:42.675Z,15.45
2022-10-04T08:22:41.531Z,15.67
2022-10-04T08:25:53.182Z,15.68
2022-10-04T08:29:31.617Z,15.77
2022-10-04T08:32:27.613Z,15.96
2022-10-04T08:35:46.127Z,16.10
2022-10-04T08:38:48.269Z,16.21
2022-10-04T08:42:32.215Z,16.04
2022-10-04T08:45:21.167Z,16.07
2022-10-04T08:48:31.628Z,16.18
2022-10-04T08:51:43.684Z,16.22
2022-10-04T08:55:12.217Z,16.22
2022-10-04T08:58:45.704Z,16.23
2022-10-04T09:01:56.888Z,16.38
2022-10-04T09:04:57.023Z,16.42
2022-10-04T09:07:52.183Z,16.31
2022-10-04T09:11:10.899Z,16.48
2022-10-04T09:14:18.407Z,16.44
2022-10-04T09:17:21.984Z,16.43
2022-10-04T09:20:37.656Z,16.35
2022-10-04T09:23:41.632Z,16.64
2022-10-04T09:26:38.471Z,16.75
2022-10-04T09:29:43.023Z,16.78
2022-10-04T09:32:59.533Z,16.57
2022-10-04T09:36:05.564Z,16.60
2022-10-04T09:39:29.546Z,16.63
2022-10-04T09:42:39.188Z,16.88
2022-10-04T09:45:31.010Z,16.86
2022-10-04T09:48:30.252Z,16.95
2022-10-04T09:51:40.930Z,16.99
2022-10-04T09:54:49.518Z,17.02
2022-10-04T09:57:57.433Z,16.91
2022-10-04T10:01:13.847Z,17.02
2022-10-04T10:04:37.191Z,17.01
2022-10-04T10:07:35.517Z,17.20
2022-10-04T10:11:01.868Z,17.07
2022-10-04T10:14:09.514Z,17.22
2022-10-04T10:17:01.597Z,16.93
2022-10-04T10:20:28.994Z,17.19
2022-10-04T10:23:37.834Z,17.15
2022-10-04T10:26:55.769Z,17.23
2022-10-04T10:29:57.144Z,17.22
2022-10-04T10:33:08.493Z,17.25
2022-10-04T10:36:01.209Z,17.27
2022-10-04T10:38:46.932Z,17.20
2022-10-04T10:41:56.356Z,17.13
2022-10-04T10:44:51.181Z,17.41
2022-10-04T10:47:40.549Z,17.36
2022-10-04T10:50:29.437Z,17.39
2022-10-04T10:53:53.081Z,17.41
2022-10-04T10:57:00.873Z,17.48
2022-10-04T11:00:21.437Z,17.21
2022-10-04T11:03:43.444Z,17.27
2022-10-04T11:06:29.502Z,17.33
2022-10-04T11:09:40.961Z,17.26
2022-10-04T11:12:32.927Z,17.53
2022-10-04T11:16:04.091Z,17.50
2022-10-04T11:19:16.136Z,17.35
2022-10-04T11:22:20.811Z,16.97
2022-10-04T11:25:29.845Z,17.57
2022-10-04T11:28:36.414Z,17.63
2022-10-04T11:31:56.277Z,17.63
2022-10-04T11:35:12.706Z,17.76
2022-10-04T11:38:25.193Z,17.78
2022-10-04T11:41:39.260Z,17.81
2022-10-04T11:44:47.541Z,17.79
2022-10-04T11:47:55.301Z,17.91
2022-10-04T11:51:06.170Z,17.85
2022-10-04T11:54:14.224Z,17.90
2022-10-04T11:57:37.229Z,17.81
2022-10-04T12:00:26.629Z,17.94
2022-10-04T12:03:44.345Z,18.00
2022-10-04T12:06:44.586Z,18.06
2022-10-04T12:09:40.336Z,18.00
2022-10-04T12:12:38.204Z,18.25
2022-10-04T12:15:52.123Z,18.00
2022-10-04T12:19:02.372Z,18.05
2022-10-04T12:21:54.625Z,18.23
2022-10-04T12:25:21.322Z,18.20
2022-10-04T12:28:16.710Z,18.29
2022-10-04T12:31:11.588Z,18.08
2022-10-04T12:34:05.008Z,18.43
2022-10-04T12:37:04.218Z,18.39
2022-10-04T12:40:20.582Z,18.23
2022-10-04T12:43:45.048Z,18.31
2022-10-04T12:46:53.054Z,18.36
2022-10-04T12:49:55.175Z,18.38
2022-10-04T12:53:07.841Z,18.34
2022-10-04T12:56:00.253Z,17.82
2022-10-04T12:58:58.516Z,18.32
2022-10-04T13:01:55.961Z,18.45
2022-10-04T13:04:48.242Z,18.53
2022-10-04T13:07:37.606Z,18.60
2022-10-04T13:10:31.085Z,18.63
2022-10-04T13:13:45.036Z,18.80
2022-10-04T13:17:33.986Z,18.71
2022-10-04T13:20:33.690Z,18.80
2022-10-04T13:23:42.306Z,18.96
2022-10-04T13:26:40.017Z,19.07
2022-10-04T13:29:34.136Z,19.07
2022-10-04T13:32:27.179Z,19.05
2022-10-04T13:35:22.029Z,18.96
2022-10-04T13:38:26.788Z,18.94
2022-10-04T13:41:18.810Z,18.99
2022-10-04T13:44:27.142Z,18.98
2022-10-04T13:47:37.258Z,18.91
2022-10-04T13:50:26.288Z,18.95
2022-10-04T13:53:58.665Z,18.64
2022-10-04T13:56:47.761Z,18.90
2022-10-04T13:59:45.296Z,18.83
2022-10-04T14:02:53.412Z,18.78
2022-10-04T14:05:59.273Z,18.65
2022-10-04T14:09:15.748Z,18.52
2022-10-04T14:12:04.855Z,18.59
2022-10-04T14:15:18.175Z,18.46
2022-10-04T14:18:27.159Z,18.38
2022-10-04T14:21:32.046Z,18.24
2022-10-04T14:24:33.504Z,18.15
2022-10-04T14:27:32.116Z,18.16
2022-10-04T14:30:49.809Z,18.02
2022-10-04T14:33:54.787Z,17.85
2022-10-04T14:36:54.070Z,17.95
2022-10-04T14:40:05.044Z,17.93
2022-10-04T14:43:00.576Z,18.11
2022-10-04T14:46:11.491Z,18.12
2022-10-04T14:49:39.023Z,18.58
2022-10-04T14:52:38.319Z,18.71
2022-10-04T14:55:58.295Z,18.81
2022-10-04T14:59:15.517Z,18.77
2022-10-04T15:02:01.542Z,18.89
2022-10-04T15:05:08.330Z,18.58
2022-10-04T15:08:21.462Z,18.68
2022-10-04T15:11:14.871Z,18.72
2022-10-04T15:14:04.874Z,18.90
2022-10-04T15:16:56.461Z,19.10
2022-10-04T15:20:01.992Z,19.24
2022-10-04T15:23:13.478Z,19.33
2022-10-04T15:26:04.697Z,19.59
2022-10-04T15:28:50.690Z,19.75
2022-10-04T15:31:48.326Z,19.93
2022-10-04T15:34:50.568Z,19.97
2022-10-04T15:37:44.374Z,19.97
2022-10-04T15:41:02.028Z,19.75
2022-10-04T15:44:14.094Z,19.46
2022-10-04T15:47:35.757Z,19.35
2022-10-04T15:50:43.363Z,19.15
2022-10-04T15:53:44.914Z,18.90
2022-10-04T15:57:00.257Z,18.64
2022-10-04T15:59:58.477Z,18.58
2022-10-04T16:02:50.829Z,18.44
2022-10-04T16:06:12.372Z,18.24
2022-10-04T16:09:23.626Z,17.61
2022-10-04T16:12:36.855Z,17.91
2022-10-04T16:15:39.048Z,17.89
2022-10-04T16:18:43.400Z,17.65
2022-10-04T16:22:16.138Z,17.61
2022-10-04T16:25:23.973Z,17.53
2022-10-04T16:28:31.865Z,17.38
2022-10-04T16:31:51.086Z,17.34
2022-10-04T16:34:45.195Z,17.33
2022-10-04T16:37:55.051Z,17.21
2022-10-04T16:41:07.597Z,17.05
2022-10-04T16:43:54.474Z,17.02
2022-10-04T16:46:48.624Z,16.96
2022-10-04T16:49:48.466Z,16.88
2022-10-04T16:52:49.823Z,16.90
2022-10-04T16:55:44.906Z,16.71
2022-10-04T16:58:31.687Z,16.77
2022-10-04T17:01:23.995Z,16.68
2022-10-04T17:04:22.617Z,16.60
2022-10-04T17:07:58.102Z,16.50
2022-10-04T17:10:50.457Z,16.49
2022-10-04T17:13:59.920Z,16.33
2022-10-04T17:16:58.623Z,16.31
2022-10-04T17:19:54.984Z,16.36
2022-10-04T17:23:07.062Z,16.26
2022-10-04T17:25:59.732Z,16.22
2022-10-04T17:29:22.015Z,16.19
2022-10-04T17:32:35.545Z,16.05
2022-10-04T17:35:52.808Z,16.08
2022-10-04T17:38:51.794Z,16.01
2022-10-04T17:42:02.701Z,15.95
2022-10-04T17:45:22.868Z,15.91
2022-10-04T17:48:33.748Z,15.84
2022-10-04T17:51:41.456Z,15.79
2022-10-04T17:54:49.280Z,15.71
2022-10-04T17:57:39.787Z,15.70
2022-10-04T18:00:28.589Z,15.39
2022-10-04T18:03:32.720Z,15.51
2022-10-04T18:06:29.792Z,15.55
2022-10-04T18:09:26.141Z,15.46
2022-10-04T18:12:30.669Z,15.43
2022-10-04T18:15:25.925Z,15.30
2022-10-04T18:18:12.608Z,15.35
2022-10-04T18:21:17.305Z,15.31
2022-10-04T18:24:21.373Z,15.20
2022-10-04T18:27:19.312Z,15.14
2022-10-04T18:30:15.474Z,15.11
2022-10-04T18:33:03.574Z,15.04
2022-10-04T18:36:01.005Z,15.10
2022-10-04T18:39:00.778Z,14.93
2022-10-04T18:42:20.909Z,14.92
2022-10-04T18:45:21.765Z,14.93
2022-10-04T18:48:15.751Z,14.90
2022-10-04T18:51:37.801Z,14.84
2022-10-04T18:54:56.049Z,14.86
2022-10-04T18:58:03.816Z,14.80
2022-10-04T19:01:40.850Z,14.75
2022-10-04T19:04:29.919Z,14.77
2022-10-04T19:07:37.809Z,14.70
2022-10-04T19:10:33.420Z,14.65
2022-10-04T19:13:42.596Z,14.68
2022-10-04T19:16:42.758Z,14.59
2022-10-04T19:19:56.685Z,14.67
2022-10-04T19:22:46.003Z,14.64
2022-10-04T19:25:39.215Z,14.60
2022-10-04T19:28:28.586Z,14.46
2022-10-04T19:31:33.970Z,14.46
2022-10-04T19:34:38.998Z,14.50
2022-10-04T19:37:57.162Z,14.47
2022-10-04T19:41:04.596Z,14.44
2022-10-04T19:44:06.134Z,14.43
2022-10-04T19:47:10.817Z,14.45
2022-10-04T19:50:23.980Z,14.32
2022-10-04T19:53:23.962Z,14.42
2022-10-04T19:56:22.302Z,14.37
2022-10-04T19:59:12.798Z,14.39
2022-10-04T20:01:59.067Z,14.35
2022-10-04T20:04:48.848Z,14.36
2022-10-04T20:07:34.886Z,14.35
2022-10-04T20:10:35.757Z,14.31
2022-10-04T20:13:26.575Z,14.35
2022-10-04T20:16:12.919Z,14.31
2022-10-04T20:18:59.798Z,14.32
2022-10-04T20:21:46.021Z,14.08
2022-10-04T20:24:38.213Z,14.22
2022-10-04T20:27:31.636Z,14.24
2022-10-04T20:30:23.040Z,14.20
2022-10-04T20:33:09.243Z,14.17
2022-10-04T20:36:00.101Z,14.20
2022-10-04T20:38:50.622Z,13.89
2022-10-04T20:41:54.918Z,14.22
2022-10-04T20:44:58.340Z,14.07
2022-10-04T20:47:49.911Z,14.20
2022-10-04T20:50:39.437Z,14.20
2022-10-04T20:53:28.556Z,14.21
2022-10-04T20:56:20.429Z,14.20
2022-10-04T20:59:15.371Z,14.17
2022-10-04T21:02:06.720Z,14.18
2022-10-04T21:04:54.217Z,14.00
2022-10-04T21:07:40.625Z,14.17
2022-10-04T21:10:28.645Z,14.20
2022-10-04T21:14:00.903Z,14.12
2022-10-04T21:16:48.937Z,14.15
2022-10-04T21:19:44.698Z,14.14
2022-10-04T21:22:33.317Z,14.07
2022-10-04T21:25:31.592Z,14.05
2022-10-04T21:28:25.084Z,14.03
2022-10-04T21:31:11.393Z,14.00
2022-10-04T21:33:57.275Z,13.98
2022-10-04T21:36:43.514Z,13.94
2022-10-04T21:39:29.851Z,13.92
2022-10-04T21:42:16.484Z,13.89
2022-10-04T21:45:02.514Z,13.88
2022-10-04T21:47:48.766Z,13.87
2022-10-04T21:50:34.796Z,13.82
2022-10-04T21:53:21.537Z,13.71
2022-10-04T21:56:07.787Z,13.78
2022-10-04T21:58:54.121Z,13.70
2022-10-04T22:01:40.045Z,13.69
2022-10-04T22:04:25.857Z,13.66
2022-10-04T22:07:11.850Z,13.66
2022-10-04T22:09:57.766Z,13.57
2022-10-04T22:12:43.816Z,13.54
2022-10-04T22:15:30.053Z,13.54
2022-10-04T22:18:16.212Z,13.53
2022-10-04T22:21:02.764Z,13.44
2022-10-04T22:23:48.759Z,13.49
2022-10-04T22:26:34.755Z,13.43
2022-10-04T22:29:20.725Z,13.45
2022-10-04T22:32:13.684Z,13.41
2022-10-04T22:35:11.290Z,13.32
2022-10-04T22:37:57.242Z,13.43
2022-10-04T22:40:43.191Z,13.35
2022-10-04T22:43:29.196Z,13.39
2022-10-04T22:46:16.971Z,13.36
2022-10-04T22:49:09.972Z,13.39
2022-10-04T22:51:57.479Z,13.41
2022-10-04T22:54:45.962Z,13.43
2022-10-04T22:57:32.121Z,13.40
2022-10-04T23:00:18.170Z,13.37
2022-10-04T23:03:25.600Z,13.39
2022-10-04T23:06:14.318Z,13.44
2022-10-04T23:09:00.257Z,13.41
2022-10-04T23:11:46.478Z,13.40
2022-10-04T23:14:35.450Z,13.35
2022-10-04T23:17:24.649Z,13.41
2022-10-04T23:20:14.770Z,13.26
2022-10-04T23:23:00.861Z,13.30
2022-10-04T23:25:47.832Z,13.26
2022-10-04T23:28:33.721Z,13.26
2022-10-04T23:31:23.767Z,13.27
2022-10-04T23:34:33.844Z,13.18
2022-10-04T23:37:23.021Z,13.27
2022-10-04T23:40:09.872Z,13.30
2022-10-04T23:42:56.796Z,13.32
2022-10-04T23:45:44.490Z,13.30
2022-10-04T23:48:32.362Z,13.26
2022-10-04T23:51:19.966Z,13.33
2022-10-04T23:54:18.581Z,13.27
2022-10-04T23:57:05.074Z,13.29
2022-10-04T23:59:51.557Z,13.35
